Millington, TN

4:18 PM CDT on May 29, 2015 (GMT -0500)
West Memphis Municipal | | Change Station
CLOSE
Current Station
Airport
Location: West Memphis,
Elevation: 213 ft
Nearby Weather Stations

Elev 213 ft 35.14 °N, 90.23 °W | Updated 9 minutes ago

Mostly Cloudy
Mostly Cloudy
84 °F
Feels Like 90 °F
N
16
Wind Variable Wind from SSE

Today
High -- | Low -- °F
--% Chance of Precip.
Yesterday
High -- | Low -- °F
Precip. -- in
5:47 AM 8:07 PM
Waxing Gibbous, 86% visible
Pressure 30.00 in
Visibility 10.0 miles
Clouds Clear
Heat Index 90 °F
Dew Point 73 °F
Humidity 69%
Rainfall 0.00 in
Snow Depth Not available.
UV 7 out of 12
Pollen 6.10 out of 12
Air Quality Not available.
Flu Activity Sporadic
SPECI KAWM 292109Z AUTO 15014KT 10SM VCTS CLR 29/23 A3000 RMK AO2 LTG DSNT SE-SW T02890228 $

More Conditions Fewer Conditions

Pressure 30.00 in
Visibility 10.0 miles
Clouds Clear
Heat Index 90 °F
Dew Point 73 °F
Humidity 69%
Rainfall 0.00 in
Snow Depth Not available.
UV 7 out of 12
Pollen 6.10 out of 12
Air Quality Not available.
Flu Activity Sporadic
SPECI KAWM 292109Z AUTO 15014KT 10SM VCTS CLR 29/23 A3000 RMK AO2 LTG DSNT SE-SW T02890228 $

More Conditions Fewer Conditions

10-Day Weather Forecast

Almanac

Astronomy

May. 29, 2015 Rise Set
Actual Time
Civil Twilight
Nautical Twilight
Astronomical Twilight
Moon
Length of Visible Light
Length of Day
Tomorrow will be .
, % of the Moon is Illuminated

Today's Extremes

State Highs State Lows

Community

WunderPhotos

Upload Photos

1,825,359 photos uploaded!

WunderBlogs® & News

Nearby

Air Quality

  Air Quality AQ Index Pollutant
Not available.

Snow Depth

Station Depth Elevation

Earthquake Activity

City Distance Mag. Time & Date
Minimum magnitude displayed is 2.5.

Coastal Water Temperatures

Place Temperature

Stations

Nearby Weather Stations

Station Location Temp. Windchill Dew Point Humidity Wind Precip. Elev Updated Type